sensor_id;sensor_type;location;lat;lon;timestamp;pressure;altitude;pressure_sealevel;temperature;humidity
56632;BME280;42503;39.928;-75.152;2023-02-11T00:02:07;101768.38;;;22.08;32.42
56632;BME280;42503;39.928;-75.152;2023-02-11T00:12:08;101772.28;;;22.07;30.76
56632;BME280;42503;39.928;-75.152;2023-02-11T00:22:09;101769.78;;;22.05;31.58
56632;BME280;42503;39.928;-75.152;2023-02-11T00:32:11;101779.53;;;22.08;31.31
56632;BME280;42503;39.928;-75.152;2023-02-11T00:42:13;101799.03;;;22.08;31.12
56632;BME280;42503;39.928;-75.152;2023-02-11T00:52:17;101795.69;;;22.06;30.45
56632;BME280;42503;39.928;-75.152;2023-02-11T01:02:19;101788.97;;;22.02;30.37
56632;BME280;42503;39.928;-75.152;2023-02-11T01:12:21;101830.78;;;22.02;29.85
56632;BME280;42503;39.928;-75.152;2023-02-11T01:22:22;101849.97;;;21.98;29.79
56632;BME280;42503;39.928;-75.152;2023-02-11T01:32:24;101857.50;;;21.98;30.86
56632;BME280;42503;39.928;-75.152;2023-02-11T01:42:25;101816.81;;;21.97;29.77
56632;BME280;42503;39.928;-75.152;2023-02-11T01:52:35;101845.19;;;21.94;30.40
56632;BME280;42503;39.928;-75.152;2023-02-11T02:02:47;101866.13;;;21.96;31.68
56632;BME280;42503;39.928;-75.152;2023-02-11T02:12:50;101872.22;;;21.93;31.79
56632;BME280;42503;39.928;-75.152;2023-02-11T02:23:06;101880.03;;;21.91;29.24
56632;BME280;42503;39.928;-75.152;2023-02-11T02:43:38;101858.78;;;21.85;29.60
56632;BME280;42503;39.928;-75.152;2023-02-11T03:04:35;101864.06;;;21.81;29.71
56632;BME280;42503;39.928;-75.152;2023-02-11T03:14:38;101866.25;;;21.79;30.11
56632;BME280;42503;39.928;-75.152;2023-02-11T03:24:41;101855.91;;;21.75;30.28
56632;BME280;42503;39.928;-75.152;2023-02-11T03:34:51;101857.78;;;21.64;31.15
56632;BME280;42503;39.928;-75.152;2023-02-11T03:45:16;101863.84;;;21.61;29.09
56632;BME280;42503;39.928;-75.152;2023-02-11T03:55:19;101849.97;;;21.66;29.97
56632;BME280;42503;39.928;-75.152;2023-02-11T04:05:22;101814.03;;;21.65;31.77
56632;BME280;42503;39.928;-75.152;2023-02-11T04:15:24;101801.78;;;21.66;31.80
56632;BME280;42503;39.928;-75.152;2023-02-11T04:25:26;101793.72;;;21.64;31.93
56632;BME280;42503;39.928;-75.152;2023-02-11T04:35:27;101785.31;;;21.59;30.95
56632;BME280;42503;39.928;-75.152;2023-02-11T04:45:31;101822.41;;;21.65;31.03
56632;BME280;42503;39.928;-75.152;2023-02-11T04:55:33;101833.81;;;21.63;29.68
56632;BME280;42503;39.928;-75.152;2023-02-11T05:05:37;101826.28;;;21.64;31.67
56632;BME280;42503;39.928;-75.152;2023-02-11T05:15:40;101838.28;;;21.64;31.41
56632;BME280;42503;39.928;-75.152;2023-02-11T05:25:41;101848.81;;;21.62;30.65
56632;BME280;42503;39.928;-75.152;2023-02-11T05:35:42;101863.84;;;21.61;31.91
56632;BME280;42503;39.928;-75.152;2023-02-11T05:45:44;101840.75;;;21.61;31.52
56632;BME280;42503;39.928;-75.152;2023-02-11T05:55:51;101846.00;;;21.57;31.58
56632;BME280;42503;39.928;-75.152;2023-02-11T06:05:52;101848.69;;;21.47;31.22
56632;BME280;42503;39.928;-75.152;2023-02-11T06:16:16;101876.78;;;21.45;31.84
56632;BME280;42503;39.928;-75.152;2023-02-11T06:26:22;101898.28;;;21.50;30.77
56632;BME280;42503;39.928;-75.152;2023-02-11T06:36:24;101892.66;;;21.45;31.00
56632;BME280;42503;39.928;-75.152;2023-02-11T06:46:29;101904.69;;;21.50;31.15
56632;BME280;42503;39.928;-75.152;2023-02-11T06:56:31;101896.00;;;21.47;31.16
56632;BME280;42503;39.928;-75.152;2023-02-11T07:06:33;101904.38;;;21.47;31.13
56632;BME280;42503;39.928;-75.152;2023-02-11T07:16:35;101781.47;;;20.62;30.29
56632;BME280;42503;39.928;-75.152;2023-02-11T07:26:37;101940.63;;;21.52;30.75
56632;BME280;42503;39.928;-75.152;2023-02-11T07:36:38;101932.28;;;21.52;30.96
56632;BME280;42503;39.928;-75.152;2023-02-11T07:46:40;101940.91;;;21.50;30.52
56632;BME280;42503;39.928;-75.152;2023-02-11T07:56:45;101966.22;;;21.49;30.41
56632;BME280;42503;39.928;-75.152;2023-02-11T08:06:46;101950.44;;;21.33;30.53
56632;BME280;42503;39.928;-75.152;2023-02-11T08:16:47;101989.53;;;21.43;29.73
56632;BME280;42503;39.928;-75.152;2023-02-11T08:26:49;101961.41;;;21.22;28.89
56632;BME280;42503;39.928;-75.152;2023-02-11T08:36:50;101988.19;;;21.28;30.07
56632;BME280;42503;39.928;-75.152;2023-02-11T08:46:52;101957.38;;;21.13;30.46
56632;BME280;42503;39.928;-75.152;2023-02-11T08:56:54;102001.66;;;21.31;30.95
56632;BME280;42503;39.928;-75.152;2023-02-11T09:06:56;101942.25;;;21.04;30.82
56632;BME280;42503;39.928;-75.152;2023-02-11T09:16:57;101992.09;;;21.27;28.87
56632;BME280;42503;39.928;-75.152;2023-02-11T09:27:01;102012.03;;;21.19;28.82
56632;BME280;42503;39.928;-75.152;2023-02-11T09:37:05;102049.31;;;21.18;29.34
56632;BME280;42503;39.928;-75.152;2023-02-11T09:57:20;102076.47;;;21.11;27.87
56632;BME280;42503;39.928;-75.152;2023-02-11T10:28:18;102123.47;;;21.08;30.20
56632;BME280;42503;39.928;-75.152;2023-02-11T10:38:20;102153.91;;;21.14;30.08
56632;BME280;42503;39.928;-75.152;2023-02-11T10:48:49;102167.75;;;21.09;30.31
56632;BME280;42503;39.928;-75.152;2023-02-11T11:09:28;102217.91;;;21.14;30.06
56632;BME280;42503;39.928;-75.152;2023-02-11T11:19:30;102229.06;;;21.14;30.44
56632;BME280;42503;39.928;-75.152;2023-02-11T11:29:46;102239.00;;;21.10;30.36
56632;BME280;42503;39.928;-75.152;2023-02-11T11:40:20;102272.06;;;21.06;30.66
56632;BME280;42503;39.928;-75.152;2023-02-11T11:50:42;102297.63;;;21.03;30.38
56632;BME280;42503;39.928;-75.152;2023-02-11T12:32:32;102418.63;;;21.01;29.58
56632;BME280;42503;39.928;-75.152;2023-02-11T12:53:26;102462.81;;;20.86;29.63
56632;BME280;42503;39.928;-75.152;2023-02-11T13:03:36;102477.31;;;20.88;30.20
56632;BME280;42503;39.928;-75.152;2023-02-11T13:13:52;102460.88;;;20.74;30.28
56632;BME280;42503;39.928;-75.152;2023-02-11T13:24:17;102510.13;;;20.86;30.29
56632;BME280;42503;39.928;-75.152;2023-02-11T13:34:52;102506.00;;;20.88;30.01
56632;BME280;42503;39.928;-75.152;2023-02-11T13:44:44;102529.59;;;20.86;29.58
56632;BME280;42503;39.928;-75.152;2023-02-11T13:54:49;102531.75;;;20.84;29.67
56632;BME280;42503;39.928;-75.152;2023-02-11T14:15:26;102548.81;;;20.75;30.19
56632;BME280;42503;39.928;-75.152;2023-02-11T14:25:30;102559.09;;;20.75;30.06
56632;BME280;42503;39.928;-75.152;2023-02-11T14:45:50;102584.50;;;20.78;28.50
56632;BME280;42503;39.928;-75.152;2023-02-11T14:55:54;102578.94;;;20.78;30.46
56632;BME280;42503;39.928;-75.152;2023-02-11T15:06:02;102588.97;;;20.79;30.11
56632;BME280;42503;39.928;-75.152;2023-02-11T15:16:06;102620.41;;;20.80;33.65
56632;BME280;42503;39.928;-75.152;2023-02-11T15:26:13;102579.06;;;20.72;33.95
56632;BME280;42503;39.928;-75.152;2023-02-11T15:36:24;102623.78;;;20.70;32.52
56632;BME280;42503;39.928;-75.152;2023-02-11T15:46:38;102603.25;;;20.71;33.28
56632;BME280;42503;39.928;-75.152;2023-02-11T15:56:44;102622.34;;;20.68;33.50
56632;BME280;42503;39.928;-75.152;2023-02-11T16:06:52;102603.59;;;20.63;33.19
56632;BME280;42503;39.928;-75.152;2023-02-11T16:16:58;102627.28;;;20.54;32.80
56632;BME280;42503;39.928;-75.152;2023-02-11T16:27:03;102607.31;;;20.57;32.79
56632;BME280;42503;39.928;-75.152;2023-02-11T16:37:05;102590.28;;;20.53;32.38
56632;BME280;42503;39.928;-75.152;2023-02-11T16:47:16;102587.97;;;20.50;32.31
56632;BME280;42503;39.928;-75.152;2023-02-11T16:57:19;102571.53;;;20.49;32.12
56632;BME280;42503;39.928;-75.152;2023-02-11T17:07:21;102546.19;;;20.39;32.03
56632;BME280;42503;39.928;-75.152;2023-02-11T17:17:25;102546.34;;;20.44;32.04
56632;BME280;42503;39.928;-75.152;2023-02-11T17:27:28;102519.34;;;20.33;31.67
56632;BME280;42503;39.928;-75.152;2023-02-11T17:37:30;102532.91;;;20.41;31.79
56632;BME280;42503;39.928;-75.152;2023-02-11T17:47:31;102526.25;;;20.42;31.67
56632;BME280;42503;39.928;-75.152;2023-02-11T17:57:32;102520.09;;;20.40;31.54
56632;BME280;42503;39.928;-75.152;2023-02-11T18:07:34;102508.13;;;20.39;31.68
56632;BME280;42503;39.928;-75.152;2023-02-11T18:17:35;102492.28;;;20.40;31.61
56632;BME280;42503;39.928;-75.152;2023-02-11T18:27:37;102456.47;;;20.20;31.32
56632;BME280;42503;39.928;-75.152;2023-02-11T18:37:39;102438.94;;;20.19;31.40
56632;BME280;42503;39.928;-75.152;2023-02-11T18:47:41;102476.47;;;20.40;31.59
56632;BME280;42503;39.928;-75.152;2023-02-11T18:57:48;102447.28;;;20.19;31.51
56632;BME280;42503;39.928;-75.152;2023-02-11T19:07:50;102473.44;;;20.42;31.40
56632;BME280;42503;39.928;-75.152;2023-02-11T19:17:51;102477.19;;;20.36;31.31
56632;BME280;42503;39.928;-75.152;2023-02-11T19:27:53;102461.09;;;20.26;31.30
56632;BME280;42503;39.928;-75.152;2023-02-11T19:37:54;102492.88;;;20.30;31.78
56632;BME280;42503;39.928;-75.152;2023-02-11T19:47:58;102511.34;;;20.24;31.46
56632;BME280;42503;39.928;-75.152;2023-02-11T19:58:00;102484.38;;;20.25;31.62
56632;BME280;42503;39.928;-75.152;2023-02-11T20:08:01;102432.25;;;19.97;31.76
56632;BME280;42503;39.928;-75.152;2023-02-11T20:18:02;102456.47;;;20.08;31.56
56632;BME280;42503;39.928;-75.152;2023-02-11T20:28:04;102473.06;;;20.26;31.64
56632;BME280;42503;39.928;-75.152;2023-02-11T20:38:05;102469.06;;;20.22;31.44
56632;BME280;42503;39.928;-75.152;2023-02-11T20:48:06;102485.28;;;20.25;31.36
56632;BME280;42503;39.928;-75.152;2023-02-11T20:58:08;102480.19;;;20.22;31.64
56632;BME280;42503;39.928;-75.152;2023-02-11T21:08:09;102468.59;;;20.25;31.22
56632;BME280;42503;39.928;-75.152;2023-02-11T21:18:11;102461.19;;;20.19;31.66
56632;BME280;42503;39.928;-75.152;2023-02-11T21:28:13;102446.81;;;20.22;31.42
56632;BME280;42503;39.928;-75.152;2023-02-11T21:38:15;102426.75;;;20.20;31.32
56632;BME280;42503;39.928;-75.152;2023-02-11T21:48:17;102417.22;;;20.16;31.03
56632;BME280;42503;39.928;-75.152;2023-02-11T21:58:18;102416.13;;;20.17;31.53
56632;BME280;42503;39.928;-75.152;2023-02-11T22:08:19;102402.56;;;20.09;31.73
56632;BME280;42503;39.928;-75.152;2023-02-11T22:18:21;102449.94;;;20.14;32.04
56632;BME280;42503;39.928;-75.152;2023-02-11T22:28:23;102464.69;;;20.15;32.04
56632;BME280;42503;39.928;-75.152;2023-02-11T22:38:30;102459.84;;;20.10;31.93
56632;BME280;42503;39.928;-75.152;2023-02-11T22:48:33;102491.03;;;20.12;32.12
56632;BME280;42503;39.928;-75.152;2023-02-11T22:58:38;102441.69;;;19.96;32.26
56632;BME280;42503;39.928;-75.152;2023-02-11T23:08:40;102450.78;;;20.15;32.67
56632;BME280;42503;39.928;-75.152;2023-02-11T23:18:44;102461.91;;;20.15;32.42
56632;BME280;42503;39.928;-75.152;2023-02-11T23:28:45;102458.28;;;20.14;32.44
56632;BME280;42503;39.928;-75.152;2023-02-11T23:38:47;102474.97;;;20.14;32.47
56632;BME280;42503;39.928;-75.152;2023-02-11T23:48:49;102475.09;;;20.19;32.69
56632;BME280;42503;39.928;-75.152;2023-02-11T23:58:53;102497.09;;;20.33;31.83
